sensor_id;sensor_type;location;lat;lon;timestamp;pressure;altitude;pressure_sealevel;temperature;humidity
4410;BME280;2218;51.408;7.208;2023-01-16T00:00:07;97898.16;;;17.60;39.20
4410;BME280;2218;51.408;7.208;2023-01-16T00:02:34;97906.88;;;17.60;39.36
4410;BME280;2218;51.408;7.208;2023-01-16T00:05:01;97899.97;;;17.59;39.16
4410;BME280;2218;51.408;7.208;2023-01-16T00:07:28;97906.03;;;17.60;39.39
4410;BME280;2218;51.408;7.208;2023-01-16T00:09:56;97899.97;;;17.59;39.41
4410;BME280;2218;51.408;7.208;2023-01-16T00:12:23;97898.31;;;17.58;39.65
4410;BME280;2218;51.408;7.208;2023-01-16T00:14:50;97891.41;;;17.57;39.39
4410;BME280;2218;51.408;7.208;2023-01-16T00:17:17;97888.78;;;17.57;39.34
4410;BME280;2218;51.408;7.208;2023-01-16T00:19:43;97883.53;;;17.57;39.74
4410;BME280;2218;51.408;7.208;2023-01-16T00:22:10;97878.44;;;17.55;39.35
4410;BME280;2218;51.408;7.208;2023-01-16T00:24:37;97880.19;;;17.55;39.42
4410;BME280;2218;51.408;7.208;2023-01-16T00:27:05;97870.66;;;17.54;39.46
4410;BME280;2218;51.408;7.208;2023-01-16T00:29:33;97865.41;;;17.54;39.53
4410;BME280;2218;51.408;7.208;2023-01-16T00:32:00;97871.63;;;17.53;39.29
4410;BME280;2218;51.408;7.208;2023-01-16T00:34:27;97856.03;;;17.51;39.46
4410;BME280;2218;51.408;7.208;2023-01-16T00:36:54;97854.38;;;17.50;39.50
4410;BME280;2218;51.408;7.208;2023-01-16T00:39:21;97851.59;;;17.52;39.66
4410;BME280;2218;51.408;7.208;2023-01-16T00:41:48;97848.97;;;17.52;39.50
4410;BME280;2218;51.408;7.208;2023-01-16T00:44:16;97843.88;;;17.50;39.84
4410;BME280;2218;51.408;7.208;2023-01-16T00:46:44;97850.91;;;17.50;39.29
4410;BME280;2218;51.408;7.208;2023-01-16T00:49:11;97848.28;;;17.50;39.54
4410;BME280;2218;51.408;7.208;2023-01-16T00:51:38;97840.41;;;17.50;39.39
4410;BME280;2218;51.408;7.208;2023-01-16T00:54:05;97839.72;;;17.48;39.53
4410;BME280;2218;51.408;7.208;2023-01-16T00:56:32;97832.81;;;17.47;39.46
4410;BME280;2218;51.408;7.208;2023-01-16T00:58:59;97837.09;;;17.48;39.56
4410;BME280;2218;51.408;7.208;2023-01-16T01:01:27;97830.19;;;17.47;39.79
4410;BME280;2218;51.408;7.208;2023-01-16T01:03:54;97820.66;;;17.46;39.46
4410;BME280;2218;51.408;7.208;2023-01-16T01:06:21;97817.06;;;17.47;39.31
4410;BME280;2218;51.408;7.208;2023-01-16T01:08:48;97814.72;;;17.44;39.58
4410;BME280;2218;51.408;7.208;2023-01-16T01:11:15;97814.56;;;17.45;39.48
4410;BME280;2218;51.408;7.208;2023-01-16T01:13:42;97808.47;;;17.45;39.87
4410;BME280;2218;51.408;7.208;2023-01-16T01:16:11;97808.47;;;17.45;39.65
4410;BME280;2218;51.408;7.208;2023-01-16T01:18:39;97806.00;;;17.43;39.52
4410;BME280;2218;51.408;7.208;2023-01-16T01:21:07;97799.94;;;17.43;39.55
4410;BME280;2218;51.408;7.208;2023-01-16T01:23:35;97793.03;;;17.42;39.72
4410;BME280;2218;51.408;7.208;2023-01-16T01:26:06;97793.03;;;17.42;39.73
4410;BME280;2218;51.408;7.208;2023-01-16T01:28:34;97780.88;;;17.41;39.73
4410;BME280;2218;51.408;7.208;2023-01-16T01:31:03;97780.88;;;17.41;39.45
4410;BME280;2218;51.408;7.208;2023-01-16T01:33:30;97783.50;;;17.41;39.51
4410;BME280;2218;51.408;7.208;2023-01-16T01:35:58;97779.19;;;17.40;39.71
4410;BME280;2218;51.408;7.208;2023-01-16T01:38:25;97777.53;;;17.39;39.33
4410;BME280;2218;51.408;7.208;2023-01-16T01:40:52;97767.03;;;17.39;39.35
4410;BME280;2218;51.408;7.208;2023-01-16T01:43:19;97760.13;;;17.38;39.59
4410;BME280;2218;51.408;7.208;2023-01-16T01:45:51;97749.63;;;17.38;39.58
4410;BME280;2218;51.408;7.208;2023-01-16T01:48:24;97752.25;;;17.38;39.67
4410;BME280;2218;51.408;7.208;2023-01-16T01:50:58;97750.63;;;17.37;39.43
4410;BME280;2218;51.408;7.208;2023-01-16T01:53:31;97753.25;;;17.37;39.52
4410;BME280;2218;51.408;7.208;2023-01-16T01:56:05;97737.50;;;17.37;39.64
4410;BME280;2218;51.408;7.208;2023-01-16T01:58:35;97738.47;;;17.36;39.81
4410;BME280;2218;51.408;7.208;2023-01-16T02:01:12;97734.97;;;17.35;39.57
4410;BME280;2218;51.408;7.208;2023-01-16T02:03:42;97731.53;;;17.35;39.40
4410;BME280;2218;51.408;7.208;2023-01-16T02:06:20;97725.47;;;17.34;39.56
4410;BME280;2218;51.408;7.208;2023-01-16T02:08:52;97716.75;;;17.34;39.40
4410;BME280;2218;51.408;7.208;2023-01-16T02:11:27;97719.38;;;17.34;39.70
4410;BME280;2218;51.408;7.208;2023-01-16T02:14:02;97709.84;;;17.33;39.72
4410;BME280;2218;51.408;7.208;2023-01-16T02:16:30;97697.72;;;17.31;39.73
4410;BME280;2218;51.408;7.208;2023-01-16T02:19:24;97702.13;;;17.31;39.64
4410;BME280;2218;51.408;7.208;2023-01-16T02:25:56;97685.56;;;17.30;39.43
4410;BME280;2218;51.408;7.208;2023-01-16T02:29:10;97674.06;;;17.31;39.55
4410;BME280;2218;51.408;7.208;2023-01-16T02:31:49;97667.84;;;17.33;39.76
4410;BME280;2218;51.408;7.208;2023-01-16T02:34:39;97664.25;;;17.34;39.42
4410;BME280;2218;51.408;7.208;2023-01-16T02:37:23;97657.06;;;17.36;39.07
4410;BME280;2218;51.408;7.208;2023-01-16T02:40:07;97655.13;;;17.38;39.26
4410;BME280;2218;51.408;7.208;2023-01-16T02:42:44;97650.53;;;17.40;39.21
4410;BME280;2218;51.408;7.208;2023-01-16T02:45:21;97645.00;;;17.43;39.40
4410;BME280;2218;51.408;7.208;2023-01-16T02:47:58;97627.31;;;17.45;39.26
4410;BME280;2218;51.408;7.208;2023-01-16T02:50:38;97628.13;;;17.45;39.25
4410;BME280;2218;51.408;7.208;2023-01-16T02:53:16;97615.84;;;17.46;39.16
4410;BME280;2218;51.408;7.208;2023-01-16T02:55:50;97615.53;;;17.49;39.19
4410;BME280;2218;51.408;7.208;2023-01-16T02:58:21;97606.84;;;17.48;39.15
4410;BME280;2218;51.408;7.208;2023-01-16T03:00:51;97598.81;;;17.50;39.06
4410;BME280;2218;51.408;7.208;2023-01-16T03:03:41;97596.06;;;17.51;39.08
4410;BME280;2218;51.408;7.208;2023-01-16T03:06:39;97582.94;;;17.51;38.97
4410;BME280;2218;51.408;7.208;2023-01-16T03:09:27;97582.09;;;17.51;38.97
4410;BME280;2218;51.408;7.208;2023-01-16T03:12:16;97574.91;;;17.53;39.23
4410;BME280;2218;51.408;7.208;2023-01-16T03:14:56;97573.91;;;17.54;39.22
4410;BME280;2218;51.408;7.208;2023-01-16T03:17:45;97571.28;;;17.54;38.98
4410;BME280;2218;51.408;7.208;2023-01-16T03:20:30;97560.78;;;17.54;39.06
4410;BME280;2218;51.408;7.208;2023-01-16T03:23:09;97568.53;;;17.55;39.13
4410;BME280;2218;51.408;7.208;2023-01-16T03:25:48;97562.44;;;17.55;38.99
4410;BME280;2218;51.408;7.208;2023-01-16T03:28:28;97555.41;;;17.55;38.94
4410;BME280;2218;51.408;7.208;2023-01-16T03:31:11;97550.97;;;17.56;39.25
4410;BME280;2218;51.408;7.208;2023-01-16T03:33:47;97550.00;;;17.57;39.02
4410;BME280;2218;51.408;7.208;2023-01-16T03:36:32;97538.50;;;17.58;38.74
4410;BME280;2218;51.408;7.208;2023-01-16T03:39:03;97523.75;;;17.57;39.27
4410;BME280;2218;51.408;7.208;2023-01-16T03:41:33;97513.06;;;17.58;38.86
4410;BME280;2218;51.408;7.208;2023-01-16T03:44:07;97519.16;;;17.59;38.72
4410;BME280;2218;51.408;7.208;2023-01-16T03:46:41;97510.44;;;17.58;38.98
4410;BME280;2218;51.408;7.208;2023-01-16T03:49:13;97512.91;;;17.60;39.04
4410;BME280;2218;51.408;7.208;2023-01-16T03:51:46;97502.41;;;17.60;38.90
4410;BME280;2218;51.408;7.208;2023-01-16T03:54:27;97502.41;;;17.60;39.04
4410;BME280;2218;51.408;7.208;2023-01-16T03:57:08;97492.75;;;17.61;38.90
4410;BME280;2218;51.408;7.208;2023-01-16T03:59:38;97490.97;;;17.61;38.57
4410;BME280;2218;51.408;7.208;2023-01-16T04:02:13;97488.31;;;17.61;38.72
4410;BME280;2218;51.408;7.208;2023-01-16T04:04:48;97479.47;;;17.62;38.93
4410;BME280;2218;51.408;7.208;2023-01-16T04:07:24;97475.19;;;17.61;38.65
4410;BME280;2218;51.408;7.208;2023-01-16T04:09:57;97468.28;;;17.60;39.05
4410;BME280;2218;51.408;7.208;2023-01-16T04:12:30;97463.72;;;17.62;39.09
4410;BME280;2218;51.408;7.208;2023-01-16T04:15:04;97458.47;;;17.62;38.73
4410;BME280;2218;51.408;7.208;2023-01-16T04:17:34;97448.13;;;17.61;39.03
4410;BME280;2218;51.408;7.208;2023-01-16T04:20:03;97442.69;;;17.62;39.19
4410;BME280;2218;51.408;7.208;2023-01-16T04:22:33;97441.06;;;17.61;39.01
4410;BME280;2218;51.408;7.208;2023-01-16T04:25:03;97432.19;;;17.62;38.94
4410;BME280;2218;51.408;7.208;2023-01-16T04:27:31;97426.13;;;17.62;39.04
4410;BME280;2218;51.408;7.208;2023-01-16T04:29:58;97422.50;;;17.63;38.85
4410;BME280;2218;51.408;7.208;2023-01-16T04:32:25;97416.44;;;17.62;38.56
4410;BME280;2218;51.408;7.208;2023-01-16T04:34:52;97399.84;;;17.62;39.09
4410;BME280;2218;51.408;7.208;2023-01-16T04:37:19;97404.94;;;17.63;38.62
4410;BME280;2218;51.408;7.208;2023-01-16T04:39:47;97389.34;;;17.62;38.97
4410;BME280;2218;51.408;7.208;2023-01-16T04:42:15;97379.69;;;17.62;38.95
4410;BME280;2218;51.408;7.208;2023-01-16T04:44:42;97370.00;;;17.63;38.78
4410;BME280;2218;51.408;7.208;2023-01-16T04:47:09;97362.09;;;17.63;38.83
4410;BME280;2218;51.408;7.208;2023-01-16T04:49:36;97349.81;;;17.63;38.99
4410;BME280;2218;51.408;7.208;2023-01-16T04:52:03;97348.00;;;17.64;38.88
4410;BME280;2218;51.408;7.208;2023-01-16T04:54:31;97342.59;;;17.65;38.75
4410;BME280;2218;51.408;7.208;2023-01-16T04:56:59;97324.38;;;17.64;38.81
4410;BME280;2218;51.408;7.208;2023-01-16T04:59:26;97319.94;;;17.64;39.18
4410;BME280;2218;51.408;7.208;2023-01-16T05:01:53;97311.06;;;17.65;38.66
4410;BME280;2218;51.408;7.208;2023-01-16T05:04:20;97306.78;;;17.64;38.86
4410;BME280;2218;51.408;7.208;2023-01-16T05:06:47;97304.16;;;17.64;38.90
4410;BME280;2218;51.408;7.208;2023-01-16T05:09:14;97300.56;;;17.65;38.51
4410;BME280;2218;51.408;7.208;2023-01-16T05:11:41;97287.44;;;17.65;38.79
4410;BME280;2218;51.408;7.208;2023-01-16T05:14:10;97281.06;;;17.68;38.83
4410;BME280;2218;51.408;7.208;2023-01-16T05:16:38;97271.22;;;17.70;38.72
4410;BME280;2218;51.408;7.208;2023-01-16T05:19:08;97272.72;;;17.72;38.48
4410;BME280;2218;51.408;7.208;2023-01-16T05:21:35;97252.56;;;17.73;38.71
4410;BME280;2218;51.408;7.208;2023-01-16T05:24:03;97252.91;;;17.78;38.66
4410;BME280;2218;51.408;7.208;2023-01-16T05:26:30;97244.72;;;17.81;38.81
4410;BME280;2218;51.408;7.208;2023-01-16T05:28:57;97230.44;;;17.83;38.56
4410;BME280;2218;51.408;7.208;2023-01-16T05:31:25;97223.25;;;17.86;38.50
4410;BME280;2218;51.408;7.208;2023-01-16T05:33:52;97228.16;;;17.89;38.25
4410;BME280;2218;51.408;7.208;2023-01-16T05:36:19;97209.13;;;17.87;38.48
4410;BME280;2218;51.408;7.208;2023-01-16T05:38:46;97201.91;;;17.89;38.76
4410;BME280;2218;51.408;7.208;2023-01-16T05:41:13;97193.72;;;17.92;38.74
4410;BME280;2218;51.408;7.208;2023-01-16T05:43:40;97196.00;;;17.95;38.24
4410;BME280;2218;51.408;7.208;2023-01-16T05:46:07;97199.63;;;17.94;38.34
4410;BME280;2218;51.408;7.208;2023-01-16T05:48:35;97195.19;;;17.94;38.64
4410;BME280;2218;51.408;7.208;2023-01-16T05:51:05;97186.16;;;17.97;38.44
4410;BME280;2218;51.408;7.208;2023-01-16T05:53:32;97182.38;;;17.99;38.55
4410;BME280;2218;51.408;7.208;2023-01-16T05:56:07;97170.91;;;18.00;38.00
4410;BME280;2218;51.408;7.208;2023-01-16T05:58:35;97179.63;;;18.01;38.42
4410;BME280;2218;51.408;7.208;2023-01-16T06:01:02;97171.75;;;18.01;38.44
4410;BME280;2218;51.408;7.208;2023-01-16T06:03:30;97162.69;;;18.03;38.44
4410;BME280;2218;51.408;7.208;2023-01-16T06:05:58;97157.44;;;18.03;38.17
4410;BME280;2218;51.408;7.208;2023-01-16T06:08:26;97140.69;;;18.04;38.42
4410;BME280;2218;51.408;7.208;2023-01-16T06:10:53;97136.94;;;18.07;37.85
4410;BME280;2218;51.408;7.208;2023-01-16T06:13:20;97132.31;;;18.09;38.14
4410;BME280;2218;51.408;7.208;2023-01-16T06:15:47;97121.97;;;18.07;38.17
4410;BME280;2218;51.408;7.208;2023-01-16T06:18:13;97110.66;;;18.07;38.23
4410;BME280;2218;51.408;7.208;2023-01-16T06:20:41;97102.59;;;18.08;38.22
4410;BME280;2218;51.408;7.208;2023-01-16T06:23:09;97088.97;;;18.13;38.05
4410;BME280;2218;51.408;7.208;2023-01-16T06:25:36;97090.94;;;18.11;38.08
4410;BME280;2218;51.408;7.208;2023-01-16T06:28:03;97081.09;;;18.13;38.18
4410;BME280;2218;51.408;7.208;2023-01-16T06:30:30;97075.66;;;18.15;37.84
4410;BME280;2218;51.408;7.208;2023-01-16T06:32:57;97056.44;;;18.14;37.80
4410;BME280;2218;51.408;7.208;2023-01-16T06:35:24;97057.44;;;18.13;38.07
4410;BME280;2218;51.408;7.208;2023-01-16T06:37:51;97052.19;;;18.13;37.88
4410;BME280;2218;51.408;7.208;2023-01-16T06:40:19;97039.72;;;18.15;37.88
4410;BME280;2218;51.408;7.208;2023-01-16T06:42:46;97036.91;;;18.17;38.02
4410;BME280;2218;51.408;7.208;2023-01-16T06:45:13;97031.47;;;18.18;38.02
4410;BME280;2218;51.408;7.208;2023-01-16T06:47:40;97029.66;;;18.19;38.24
4410;BME280;2218;51.408;7.208;2023-01-16T06:50:09;97028.84;;;18.18;37.65
4410;BME280;2218;51.408;7.208;2023-01-16T06:52:36;97026.06;;;18.20;37.90
4410;BME280;2218;51.408;7.208;2023-01-16T06:55:05;97031.31;;;18.20;38.02
4410;BME280;2218;51.408;7.208;2023-01-16T06:57:36;97012.75;;;18.21;37.80
4410;BME280;2218;51.408;7.208;2023-01-16T07:00:04;97001.59;;;18.27;38.11
4410;BME280;2218;51.408;7.208;2023-01-16T07:02:31;96969.06;;;18.37;37.46
4410;BME280;2218;51.408;7.208;2023-01-16T07:04:58;96963.13;;;18.43;37.20
4410;BME280;2218;51.408;7.208;2023-01-16T07:07:25;96946.50;;;18.50;37.35
4410;BME280;2218;51.408;7.208;2023-01-16T07:09:52;96957.81;;;18.59;37.19
4410;BME280;2218;51.408;7.208;2023-01-16T07:12:19;96942.00;;;18.67;37.31
4410;BME280;2218;51.408;7.208;2023-01-16T07:14:47;96932.47;;;18.74;37.34
4410;BME280;2218;51.408;7.208;2023-01-16T07:17:32;96927.53;;;18.79;37.37
4410;BME280;2218;51.408;7.208;2023-01-16T07:20:16;96936.38;;;18.87;37.26
4410;BME280;2218;51.408;7.208;2023-01-16T07:23:01;96933.75;;;18.87;37.32
4410;BME280;2218;51.408;7.208;2023-01-16T07:25:33;96939.97;;;18.94;37.55
4410;BME280;2218;51.408;7.208;2023-01-16T07:28:01;96934.56;;;18.95;37.40
4410;BME280;2218;51.408;7.208;2023-01-16T07:30:30;96915.78;;;18.98;37.22
4410;BME280;2218;51.408;7.208;2023-01-16T07:32:57;96900.47;;;19.02;37.35
4410;BME280;2218;51.408;7.208;2023-01-16T07:35:24;96895.19;;;19.02;37.70
4410;BME280;2218;51.408;7.208;2023-01-16T07:37:51;96896.50;;;19.06;37.75
4410;BME280;2218;51.408;7.208;2023-01-16T07:40:22;96872.16;;;19.04;37.74
4410;BME280;2218;51.408;7.208;2023-01-16T07:42:49;96861.28;;;19.07;37.62
4410;BME280;2218;51.408;7.208;2023-01-16T07:45:16;96860.47;;;19.06;37.68
4410;BME280;2218;51.408;7.208;2023-01-16T07:47:45;96864.53;;;19.09;37.80
4410;BME280;2218;51.408;7.208;2023-01-16T07:50:12;96862.56;;;19.11;37.59
4410;BME280;2218;51.408;7.208;2023-01-16T07:52:39;96845.97;;;19.10;37.53
4410;BME280;2218;51.408;7.208;2023-01-16T07:55:07;96840.34;;;19.14;37.73
4410;BME280;2218;51.408;7.208;2023-01-16T07:57:36;96828.38;;;19.11;37.69
4410;BME280;2218;51.408;7.208;2023-01-16T08:00:05;96820.47;;;19.11;37.57
4410;BME280;2218;51.408;7.208;2023-01-16T08:02:37;96815.03;;;19.13;37.58
4410;BME280;2218;51.408;7.208;2023-01-16T08:05:08;96799.03;;;19.14;37.87
4410;BME280;2218;51.408;7.208;2023-01-16T08:07:35;96805.59;;;19.18;37.59
4410;BME280;2218;51.408;7.208;2023-01-16T08:10:03;96789.47;;;19.21;37.44
4410;BME280;2218;51.408;7.208;2023-01-16T08:12:30;96786.66;;;19.23;37.60
4410;BME280;2218;51.408;7.208;2023-01-16T08:14:57;96779.56;;;19.23;37.68
4410;BME280;2218;51.408;7.208;2023-01-16T08:17:24;96777.75;;;19.24;37.54
4410;BME280;2218;51.408;7.208;2023-01-16T08:19:51;96777.59;;;19.25;37.54
4410;BME280;2218;51.408;7.208;2023-01-16T08:22:19;96760.78;;;19.26;37.52
4410;BME280;2218;51.408;7.208;2023-01-16T08:24:46;96753.72;;;19.27;37.74
4410;BME280;2218;51.408;7.208;2023-01-16T08:27:13;96743.81;;;19.29;37.29
4410;BME280;2218;51.408;7.208;2023-01-16T08:29:39;96730.84;;;19.27;37.77
4410;BME280;2218;51.408;7.208;2023-01-16T08:32:06;96727.19;;;19.28;37.76
4410;BME280;2218;51.408;7.208;2023-01-16T08:34:35;96726.22;;;19.29;37.97
4410;BME280;2218;51.408;7.208;2023-01-16T08:37:02;96717.47;;;19.29;37.87
4410;BME280;2218;51.408;7.208;2023-01-16T08:39:31;96703.34;;;19.30;37.87
4410;BME280;2218;51.408;7.208;2023-01-16T08:41:58;96709.44;;;19.30;37.92
4410;BME280;2218;51.408;7.208;2023-01-16T08:44:42;96700.53;;;19.31;37.80
4410;BME280;2218;51.408;7.208;2023-01-16T08:47:27;96695.88;;;19.33;38.14
4410;BME280;2218;51.408;7.208;2023-01-16T08:50:18;96689.66;;;19.34;37.93
4410;BME280;2218;51.408;7.208;2023-01-16T08:53:04;96684.38;;;19.34;38.00
4410;BME280;2218;51.408;7.208;2023-01-16T08:55:33;96671.22;;;19.34;37.83
4410;BME280;2218;51.408;7.208;2023-01-16T08:57:59;96671.03;;;19.36;38.09
4410;BME280;2218;51.408;7.208;2023-01-16T09:00:28;96671.03;;;19.36;37.84
4410;BME280;2218;51.408;7.208;2023-01-16T09:02:55;96662.94;;;19.37;37.91
4410;BME280;2218;51.408;7.208;2023-01-16T09:05:25;96658.47;;;19.38;37.89
4410;BME280;2218;51.408;7.208;2023-01-16T09:07:52;96656.03;;;19.36;38.07
4410;BME280;2218;51.408;7.208;2023-01-16T09:10:19;96649.78;;;19.37;37.96
4410;BME280;2218;51.408;7.208;2023-01-16T09:12:48;96648.41;;;19.42;38.11
4410;BME280;2218;51.408;7.208;2023-01-16T09:15:32;96637.53;;;19.45;37.96
4410;BME280;2218;51.408;7.208;2023-01-16T09:17:59;96627.00;;;19.45;37.70
4410;BME280;2218;51.408;7.208;2023-01-16T09:20:26;96628.25;;;19.49;37.68
4410;BME280;2218;51.408;7.208;2023-01-16T09:22:57;96631.88;;;19.48;37.57
4410;BME280;2218;51.408;7.208;2023-01-16T09:25:25;96612.44;;;19.49;37.62
4410;BME280;2218;51.408;7.208;2023-01-16T09:27:53;96612.44;;;19.49;37.52
4410;BME280;2218;51.408;7.208;2023-01-16T09:30:20;96608.84;;;19.50;37.45
4410;BME280;2218;51.408;7.208;2023-01-16T09:32:48;96612.09;;;19.52;37.03
4410;BME280;2218;51.408;7.208;2023-01-16T09:35:15;96617.00;;;19.55;37.02
4410;BME280;2218;51.408;7.208;2023-01-16T09:37:42;96601.19;;;19.55;37.16
4410;BME280;2218;51.408;7.208;2023-01-16T09:40:14;96593.91;;;19.57;37.06
4410;BME280;2218;51.408;7.208;2023-01-16T09:43:12;96598.38;;;19.56;36.90
4410;BME280;2218;51.408;7.208;2023-01-16T09:46:06;96595.53;;;19.58;37.00
4410;BME280;2218;51.408;7.208;2023-01-16T09:48:47;96589.28;;;19.59;36.77
4410;BME280;2218;51.408;7.208;2023-01-16T09:51:20;96600.50;;;19.61;36.68
4410;BME280;2218;51.408;7.208;2023-01-16T09:53:55;96591.59;;;19.62;36.51
4410;BME280;2218;51.408;7.208;2023-01-16T09:56:44;96592.59;;;19.61;36.58
4410;BME280;2218;51.408;7.208;2023-01-16T09:59:36;96579.41;;;19.61;36.84
4410;BME280;2218;51.408;7.208;2023-01-16T10:02:21;96574.63;;;19.65;36.73
4410;BME280;2218;51.408;7.208;2023-01-16T10:04:53;96570.16;;;19.65;36.55
4410;BME280;2218;51.408;7.208;2023-01-16T10:07:40;96572.59;;;19.67;36.80
4410;BME280;2218;51.408;7.208;2023-01-16T10:10:30;96560.25;;;19.67;36.64
4410;BME280;2218;51.408;7.208;2023-01-16T10:13:14;96551.16;;;19.70;36.60
4410;BME280;2218;51.408;7.208;2023-01-16T10:15:54;96545.91;;;19.70;36.52
4410;BME280;2218;51.408;7.208;2023-01-16T10:18:40;96553.97;;;19.68;36.52
4410;BME280;2218;51.408;7.208;2023-01-16T10:21:35;96538.59;;;19.72;36.45
4410;BME280;2218;51.408;7.208;2023-01-16T10:24:16;96536.78;;;19.72;36.36
4410;BME280;2218;51.408;7.208;2023-01-16T10:26:58;96533.34;;;19.72;36.16
4410;BME280;2218;51.408;7.208;2023-01-16T10:29:34;96540.88;;;19.75;36.22
4410;BME280;2218;51.408;7.208;2023-01-16T10:32:11;96525.69;;;19.77;36.05
4410;BME280;2218;51.408;7.208;2023-01-16T10:34:51;96525.50;;;19.78;35.95
4410;BME280;2218;51.408;7.208;2023-01-16T10:37:22;96510.69;;;19.77;35.99
4410;BME280;2218;51.408;7.208;2023-01-16T10:39:51;96509.53;;;19.80;36.07
4410;BME280;2218;51.408;7.208;2023-01-16T10:42:26;96505.06;;;19.80;36.22
4410;BME280;2218;51.408;7.208;2023-01-16T10:45:16;96504.88;;;19.82;36.22
4410;BME280;2218;51.408;7.208;2023-01-16T10:48:09;96488.88;;;19.83;36.02
4410;BME280;2218;51.408;7.208;2023-01-16T10:50:56;96489.69;;;19.84;36.19
4410;BME280;2218;51.408;7.208;2023-01-16T10:53:23;96480.00;;;19.84;36.34
4410;BME280;2218;51.408;7.208;2023-01-16T10:55:52;96469.44;;;19.84;36.30
4410;BME280;2218;51.408;7.208;2023-01-16T10:58:27;96458.91;;;19.84;36.21
4410;BME280;2218;51.408;7.208;2023-01-16T11:01:00;96462.97;;;19.87;36.43
4410;BME280;2218;51.408;7.208;2023-01-16T11:03:34;96450.00;;;19.85;36.45
4410;BME280;2218;51.408;7.208;2023-01-16T11:06:12;96440.25;;;19.86;36.26
4410;BME280;2218;51.408;7.208;2023-01-16T11:08:42;96442.09;;;19.85;36.41
4410;BME280;2218;51.408;7.208;2023-01-16T11:11:12;96421.63;;;19.87;36.24
4410;BME280;2218;51.408;7.208;2023-01-16T11:13:53;96436.41;;;19.88;36.24
4410;BME280;2218;51.408;7.208;2023-01-16T11:16:38;96417.81;;;19.90;35.81
4410;BME280;2218;51.408;7.208;2023-01-16T11:19:26;96422.88;;;19.92;36.48
4410;BME280;2218;51.408;7.208;2023-01-16T11:21:58;96410.72;;;19.91;36.49
4410;BME280;2218;51.408;7.208;2023-01-16T11:24:32;96398.16;;;19.93;36.34
4410;BME280;2218;51.408;7.208;2023-01-16T11:27:01;96399.78;;;19.94;36.48
4410;BME280;2218;51.408;7.208;2023-01-16T11:29:38;96383.16;;;19.93;36.46
4410;BME280;2218;51.408;7.208;2023-01-16T11:32:08;96390.06;;;19.94;36.39
4410;BME280;2218;51.408;7.208;2023-01-16T11:34:43;96373.44;;;19.94;36.33
4410;BME280;2218;51.408;7.208;2023-01-16T11:37:15;96376.06;;;19.94;36.40
4410;BME280;2218;51.408;7.208;2023-01-16T11:39:48;96366.34;;;19.94;36.31
4410;BME280;2218;51.408;7.208;2023-01-16T11:42:15;96362.06;;;19.93;36.38
4410;BME280;2218;51.408;7.208;2023-01-16T11:44:58;96360.88;;;19.96;36.28
4410;BME280;2218;51.408;7.208;2023-01-16T11:47:50;96362.50;;;19.97;36.37
4410;BME280;2218;51.408;7.208;2023-01-16T11:50:34;96358.88;;;19.98;36.24
4410;BME280;2218;51.408;7.208;2023-01-16T11:53:02;96338.59;;;19.98;36.21
4410;BME280;2218;51.408;7.208;2023-01-16T11:55:39;96347.50;;;19.97;36.38
4410;BME280;2218;51.408;7.208;2023-01-16T11:58:18;96328.25;;;19.97;36.44
4410;BME280;2218;51.408;7.208;2023-01-16T12:00:56;96309.81;;;19.97;36.29
4410;BME280;2218;51.408;7.208;2023-01-16T12:03:46;96305.34;;;19.97;36.23
4410;BME280;2218;51.408;7.208;2023-01-16T12:06:39;96304.34;;;19.98;36.33
4410;BME280;2218;51.408;7.208;2023-01-16T12:09:30;96279.81;;;19.98;36.41
4410;BME280;2218;51.408;7.208;2023-01-16T12:12:11;96264.00;;;19.98;36.33
4410;BME280;2218;51.408;7.208;2023-01-16T12:15:03;96264.81;;;19.98;36.46
4410;BME280;2218;51.408;7.208;2023-01-16T12:18:11;96258.56;;;19.99;36.31
4410;BME280;2218;51.408;7.208;2023-01-16T12:20:51;96249.81;;;19.99;35.83
4410;BME280;2218;51.408;7.208;2023-01-16T12:23:42;96243.72;;;19.98;36.27
4410;BME280;2218;51.408;7.208;2023-01-16T12:26:20;96237.66;;;19.98;36.29
4410;BME280;2218;51.408;7.208;2023-01-16T12:29:13;96223.44;;;19.99;36.38
4410;BME280;2218;51.408;7.208;2023-01-16T12:31:59;96229.34;;;20.01;36.32
4410;BME280;2218;51.408;7.208;2023-01-16T12:34:50;96226.72;;;20.01;36.09
4410;BME280;2218;51.408;7.208;2023-01-16T12:37:40;96211.94;;;20.00;36.29
4410;BME280;2218;51.408;7.208;2023-01-16T12:40:30;96214.34;;;20.01;36.42
4410;BME280;2218;51.408;7.208;2023-01-16T12:43:12;96212.53;;;20.02;36.35
4410;BME280;2218;51.408;7.208;2023-01-16T12:45:50;96189.41;;;20.04;36.25
4410;BME280;2218;51.408;7.208;2023-01-16T12:48:53;96187.63;;;20.04;36.31
4410;BME280;2218;51.408;7.208;2023-01-16T12:51:40;96169.19;;;20.04;36.47
4410;BME280;2218;51.408;7.208;2023-01-16T12:54:33;96157.78;;;20.04;36.38
4410;BME280;2218;51.408;7.208;2023-01-16T12:57:33;96155.16;;;20.04;36.30
4410;BME280;2218;51.408;7.208;2023-01-16T13:00:10;96149.06;;;20.03;36.39
4410;BME280;2218;51.408;7.208;2023-01-16T13:02:43;96146.44;;;20.03;36.26
4410;BME280;2218;51.408;7.208;2023-01-16T13:05:17;96141.97;;;20.04;36.22
4410;BME280;2218;51.408;7.208;2023-01-16T13:07:51;96140.19;;;20.04;36.22
4410;BME280;2218;51.408;7.208;2023-01-16T13:10:24;96138.38;;;20.05;36.33
4410;BME280;2218;51.408;7.208;2023-01-16T13:13:18;96134.72;;;20.06;36.34
4410;BME280;2218;51.408;7.208;2023-01-16T13:15:59;96120.53;;;20.07;36.21
4410;BME280;2218;51.408;7.208;2023-01-16T13:18:35;96126.81;;;20.06;36.32
4410;BME280;2218;51.408;7.208;2023-01-16T13:21:10;96131.06;;;20.07;36.30
4410;BME280;2218;51.408;7.208;2023-01-16T13:23:47;96116.25;;;20.06;36.30
4410;BME280;2218;51.408;7.208;2023-01-16T13:26:18;96116.06;;;20.07;36.38
4410;BME280;2218;51.408;7.208;2023-01-16T13:28:53;96109.97;;;20.07;36.27
4410;BME280;2218;51.408;7.208;2023-01-16T13:31:32;96109.97;;;20.07;36.22
4410;BME280;2218;51.408;7.208;2023-01-16T13:34:09;96103.69;;;20.08;36.36
4410;BME280;2218;51.408;7.208;2023-01-16T13:37:17;96098.25;;;20.09;36.07
4410;BME280;2218;51.408;7.208;2023-01-16T13:40:25;96093.16;;;20.08;36.13
4410;BME280;2218;51.408;7.208;2023-01-16T13:43:02;96093.78;;;20.10;36.21
4410;BME280;2218;51.408;7.208;2023-01-16T13:45:46;96088.50;;;20.10;36.39
4410;BME280;2218;51.408;7.208;2023-01-16T13:48:18;96075.31;;;20.10;36.45
4410;BME280;2218;51.408;7.208;2023-01-16T13:50:52;96065.81;;;20.09;36.29
4410;BME280;2218;51.408;7.208;2023-01-16T13:53:21;96069.03;;;20.11;36.40
4410;BME280;2218;51.408;7.208;2023-01-16T13:55:49;96070.66;;;20.12;36.24
4410;BME280;2218;51.408;7.208;2023-01-16T13:58:20;96061.13;;;20.11;36.41
4410;BME280;2218;51.408;7.208;2023-01-16T14:00:59;96065.38;;;20.12;36.33